sensor_id;sensor_type;location;lat;lon;timestamp;temperature;humidity
20158;DHT22;10239;56.820;24.416;2023-04-25T00:01:47;13.60;99.90
20158;DHT22;10239;56.820;24.416;2023-04-25T00:04:15;13.50;99.90
20158;DHT22;10239;56.820;24.416;2023-04-25T00:06:43;13.20;99.90
20158;DHT22;10239;56.820;24.416;2023-04-25T00:09:11;13.10;99.90
20158;DHT22;10239;56.820;24.416;2023-04-25T00:11:38;13.20;99.90
20158;DHT22;10239;56.820;24.416;2023-04-25T00:14:06;13.20;99.90
20158;DHT22;10239;56.820;24.416;2023-04-25T00:16:33;13.00;99.90
20158;DHT22;10239;56.820;24.416;2023-04-25T00:19:02;12.80;99.90
20158;DHT22;10239;56.820;24.416;2023-04-25T00:21:30;12.90;99.90
20158;DHT22;10239;56.820;24.416;2023-04-25T00:23:59;12.70;99.90
20158;DHT22;10239;56.820;24.416;2023-04-25T00:26:27;12.70;99.90
20158;DHT22;10239;56.820;24.416;2023-04-25T00:28:55;12.70;99.90
20158;DHT22;10239;56.820;24.416;2023-04-25T00:31:22;12.80;99.90
20158;DHT22;10239;56.820;24.416;2023-04-25T00:33:50;12.90;99.90
20158;DHT22;10239;56.820;24.416;2023-04-25T00:36:18;13.00;99.90
20158;DHT22;10239;56.820;24.416;2023-04-25T00:38:46;12.70;99.90
20158;DHT22;10239;56.820;24.416;2023-04-25T00:41:13;12.60;99.90
20158;DHT22;10239;56.820;24.416;2023-04-25T00:43:41;12.60;99.90
20158;DHT22;10239;56.820;24.416;2023-04-25T00:46:09;12.60;99.90
20158;DHT22;10239;56.820;24.416;2023-04-25T00:48:37;12.80;99.90
20158;DHT22;10239;56.820;24.416;2023-04-25T00:51:04;12.70;99.90
20158;DHT22;10239;56.820;24.416;2023-04-25T00:53:32;12.80;99.90
20158;DHT22;10239;56.820;24.416;2023-04-25T00:56:00;13.10;99.90
20158;DHT22;10239;56.820;24.416;2023-04-25T00:58:28;13.20;99.90
20158;DHT22;10239;56.820;24.416;2023-04-25T01:00:56;13.20;99.90
20158;DHT22;10239;56.820;24.416;2023-04-25T01:03:24;13.30;99.90
20158;DHT22;10239;56.820;24.416;2023-04-25T01:05:53;13.30;99.90
20158;DHT22;10239;56.820;24.416;2023-04-25T01:08:24;13.30;99.90
20158;DHT22;10239;56.820;24.416;2023-04-25T01:10:54;13.20;99.90
20158;DHT22;10239;56.820;24.416;2023-04-25T01:13:22;13.10;99.90
20158;DHT22;10239;56.820;24.416;2023-04-25T01:15:50;12.90;99.90
20158;DHT22;10239;56.820;24.416;2023-04-25T01:18:19;12.70;99.90
20158;DHT22;10239;56.820;24.416;2023-04-25T01:20:53;12.80;99.90
20158;DHT22;10239;56.820;24.416;2023-04-25T01:23:21;12.80;99.90
20158;DHT22;10239;56.820;24.416;2023-04-25T01:25:50;12.80;99.90
20158;DHT22;10239;56.820;24.416;2023-04-25T01:28:18;12.70;99.90
20158;DHT22;10239;56.820;24.416;2023-04-25T01:30:46;12.50;99.90
20158;DHT22;10239;56.820;24.416;2023-04-25T01:33:15;12.70;99.90
20158;DHT22;10239;56.820;24.416;2023-04-25T01:35:43;12.80;99.90
20158;DHT22;10239;56.820;24.416;2023-04-25T01:38:12;12.70;99.90
20158;DHT22;10239;56.820;24.416;2023-04-25T01:40:40;12.40;99.90
20158;DHT22;10239;56.820;24.416;2023-04-25T01:43:08;12.60;99.90
20158;DHT22;10239;56.820;24.416;2023-04-25T01:45:40;12.70;99.90
20158;DHT22;10239;56.820;24.416;2023-04-25T01:48:11;12.50;99.90
20158;DHT22;10239;56.820;24.416;2023-04-25T01:50:40;12.70;99.90
20158;DHT22;10239;56.820;24.416;2023-04-25T01:53:09;12.60;99.90
20158;DHT22;10239;56.820;24.416;2023-04-25T01:55:38;12.20;99.90
20158;DHT22;10239;56.820;24.416;2023-04-25T01:58:12;12.20;99.90
20158;DHT22;10239;56.820;24.416;2023-04-25T02:00:56;12.00;99.90
20158;DHT22;10239;56.820;24.416;2023-04-25T02:03:31;12.00;99.90
20158;DHT22;10239;56.820;24.416;2023-04-25T02:05:59;11.90;99.90
20158;DHT22;10239;56.820;24.416;2023-04-25T02:08:28;11.80;99.90
20158;DHT22;10239;56.820;24.416;2023-04-25T02:10:57;11.90;99.90
20158;DHT22;10239;56.820;24.416;2023-04-25T02:13:30;12.00;99.90
20158;DHT22;10239;56.820;24.416;2023-04-25T02:16:18;12.20;99.90
20158;DHT22;10239;56.820;24.416;2023-04-25T02:18:46;12.10;99.90
20158;DHT22;10239;56.820;24.416;2023-04-25T02:21:14;12.10;99.90
20158;DHT22;10239;56.820;24.416;2023-04-25T02:23:42;12.10;99.90
20158;DHT22;10239;56.820;24.416;2023-04-25T02:26:12;12.20;99.90
20158;DHT22;10239;56.820;24.416;2023-04-25T02:28:41;12.20;99.90
20158;DHT22;10239;56.820;24.416;2023-04-25T02:31:08;12.20;99.90
20158;DHT22;10239;56.820;24.416;2023-04-25T02:33:35;12.40;99.90
20158;DHT22;10239;56.820;24.416;2023-04-25T02:36:06;12.40;99.90
20158;DHT22;10239;56.820;24.416;2023-04-25T02:38:34;12.50;99.90
20158;DHT22;10239;56.820;24.416;2023-04-25T02:41:03;12.70;99.90
20158;DHT22;10239;56.820;24.416;2023-04-25T02:43:31;12.70;99.90
20158;DHT22;10239;56.820;24.416;2023-04-25T02:45:58;12.80;99.90
20158;DHT22;10239;56.820;24.416;2023-04-25T02:48:26;12.90;99.90
20158;DHT22;10239;56.820;24.416;2023-04-25T02:50:53;13.20;99.90
20158;DHT22;10239;56.820;24.416;2023-04-25T02:53:21;13.10;99.90
20158;DHT22;10239;56.820;24.416;2023-04-25T02:55:51;13.10;99.90
20158;DHT22;10239;56.820;24.416;2023-04-25T02:58:19;12.90;99.90
20158;DHT22;10239;56.820;24.416;2023-04-25T03:00:50;13.10;99.90
20158;DHT22;10239;56.820;24.416;2023-04-25T03:03:18;13.20;99.90
20158;DHT22;10239;56.820;24.416;2023-04-25T03:05:52;13.20;99.90
20158;DHT22;10239;56.820;24.416;2023-04-25T03:08:25;13.30;99.90
20158;DHT22;10239;56.820;24.416;2023-04-25T03:10:56;13.00;99.90
20158;DHT22;10239;56.820;24.416;2023-04-25T03:13:24;12.80;99.90
20158;DHT22;10239;56.820;24.416;2023-04-25T03:15:52;12.70;99.90
20158;DHT22;10239;56.820;24.416;2023-04-25T03:18:19;12.80;99.90
20158;DHT22;10239;56.820;24.416;2023-04-25T03:20:47;12.80;99.90
20158;DHT22;10239;56.820;24.416;2023-04-25T03:23:14;12.80;99.90
20158;DHT22;10239;56.820;24.416;2023-04-25T03:25:42;12.90;99.90
20158;DHT22;10239;56.820;24.416;2023-04-25T03:28:09;12.80;99.90
20158;DHT22;10239;56.820;24.416;2023-04-25T03:30:36;12.80;99.90
20158;DHT22;10239;56.820;24.416;2023-04-25T03:33:04;12.70;99.90
20158;DHT22;10239;56.820;24.416;2023-04-25T03:35:31;13.00;99.90
20158;DHT22;10239;56.820;24.416;2023-04-25T03:37:58;13.10;99.90
20158;DHT22;10239;56.820;24.416;2023-04-25T03:40:31;13.20;99.90
20158;DHT22;10239;56.820;24.416;2023-04-25T03:43:33;13.10;99.90
20158;DHT22;10239;56.820;24.416;2023-04-25T03:46:06;13.00;99.90
20158;DHT22;10239;56.820;24.416;2023-04-25T03:48:35;13.20;99.90
20158;DHT22;10239;56.820;24.416;2023-04-25T03:51:03;13.30;99.90
20158;DHT22;10239;56.820;24.416;2023-04-25T03:53:33;13.10;99.90
20158;DHT22;10239;56.820;24.416;2023-04-25T03:56:18;13.30;99.90
20158;DHT22;10239;56.820;24.416;2023-04-25T03:58:53;13.20;99.90
20158;DHT22;10239;56.820;24.416;2023-04-25T04:01:23;13.20;99.90
20158;DHT22;10239;56.820;24.416;2023-04-25T04:03:50;13.50;99.90
20158;DHT22;10239;56.820;24.416;2023-04-25T04:06:18;13.50;99.90
20158;DHT22;10239;56.820;24.416;2023-04-25T04:08:52;13.40;99.90
20158;DHT22;10239;56.820;24.416;2023-04-25T04:11:21;13.60;99.90
20158;DHT22;10239;56.820;24.416;2023-04-25T04:13:49;13.50;99.90
20158;DHT22;10239;56.820;24.416;2023-04-25T04:16:17;13.40;99.90
20158;DHT22;10239;56.820;24.416;2023-04-25T04:18:46;13.50;99.90
20158;DHT22;10239;56.820;24.416;2023-04-25T04:21:14;13.60;99.90
20158;DHT22;10239;56.820;24.416;2023-04-25T04:23:42;13.70;99.90
20158;DHT22;10239;56.820;24.416;2023-04-25T04:26:10;13.60;99.90
20158;DHT22;10239;56.820;24.416;2023-04-25T04:29:05;13.70;99.90
20158;DHT22;10239;56.820;24.416;2023-04-25T04:32:04;13.90;99.90
20158;DHT22;10239;56.820;24.416;2023-04-25T04:34:32;14.00;99.90
20158;DHT22;10239;56.820;24.416;2023-04-25T04:37:01;13.90;99.90
20158;DHT22;10239;56.820;24.416;2023-04-25T04:39:28;14.00;99.90
20158;DHT22;10239;56.820;24.416;2023-04-25T04:42:07;14.10;99.90
20158;DHT22;10239;56.820;24.416;2023-04-25T04:45:01;14.00;99.90
20158;DHT22;10239;56.820;24.416;2023-04-25T04:47:47;14.30;99.90
20158;DHT22;10239;56.820;24.416;2023-04-25T04:50:27;14.40;99.90
20158;DHT22;10239;56.820;24.416;2023-04-25T04:53:15;14.20;99.90
20158;DHT22;10239;56.820;24.416;2023-04-25T04:55:46;14.20;99.90
20158;DHT22;10239;56.820;24.416;2023-04-25T04:58:32;14.30;99.90
20158;DHT22;10239;56.820;24.416;2023-04-25T05:01:13;14.60;99.90
20158;DHT22;10239;56.820;24.416;2023-04-25T05:04:01;14.60;99.90
20158;DHT22;10239;56.820;24.416;2023-04-25T05:07:02;14.70;99.90
20158;DHT22;10239;56.820;24.416;2023-04-25T05:09:48;14.90;99.90
20158;DHT22;10239;56.820;24.416;2023-04-25T05:12:34;14.70;99.90
20158;DHT22;10239;56.820;24.416;2023-04-25T05:15:12;14.70;99.90
20158;DHT22;10239;56.820;24.416;2023-04-25T05:18:13;14.80;99.90
20158;DHT22;10239;56.820;24.416;2023-04-25T05:21:05;14.90;99.90
20158;DHT22;10239;56.820;24.416;2023-04-25T05:23:45;15.00;99.90
20158;DHT22;10239;56.820;24.416;2023-04-25T05:26:32;15.10;99.90
20158;DHT22;10239;56.820;24.416;2023-04-25T05:29:23;15.30;99.90
20158;DHT22;10239;56.820;24.416;2023-04-25T05:32:16;15.20;99.90
20158;DHT22;10239;56.820;24.416;2023-04-25T05:34:46;15.10;99.90
20158;DHT22;10239;56.820;24.416;2023-04-25T05:37:24;15.50;99.90
20158;DHT22;10239;56.820;24.416;2023-04-25T05:39:56;18.00;99.90
20158;DHT22;10239;56.820;24.416;2023-04-25T05:42:36;19.50;99.90
20158;DHT22;10239;56.820;24.416;2023-04-25T05:45:26;19.70;99.90
20158;DHT22;10239;56.820;24.416;2023-04-25T05:48:06;20.40;99.90
20158;DHT22;10239;56.820;24.416;2023-04-25T05:50:52;21.70;99.90
20158;DHT22;10239;56.820;24.416;2023-04-25T05:53:39;22.40;99.90
20158;DHT22;10239;56.820;24.416;2023-04-25T05:56:07;21.60;99.90
20158;DHT22;10239;56.820;24.416;2023-04-25T05:58:35;21.60;99.90
20158;DHT22;10239;56.820;24.416;2023-04-25T06:01:03;20.90;99.90
20158;DHT22;10239;56.820;24.416;2023-04-25T06:03:30;21.30;99.90
20158;DHT22;10239;56.820;24.416;2023-04-25T06:05:58;22.70;99.90
20158;DHT22;10239;56.820;24.416;2023-04-25T06:08:26;23.50;98.20
20158;DHT22;10239;56.820;24.416;2023-04-25T06:10:54;23.80;99.10
20158;DHT22;10239;56.820;24.416;2023-04-25T06:13:22;23.40;98.20
20158;DHT22;10239;56.820;24.416;2023-04-25T06:15:50;24.00;95.80
20158;DHT22;10239;56.820;24.416;2023-04-25T06:18:18;23.10;96.20
20158;DHT22;10239;56.820;24.416;2023-04-25T06:20:46;24.80;94.80
20158;DHT22;10239;56.820;24.416;2023-04-25T06:23:13;24.50;93.70
20158;DHT22;10239;56.820;24.416;2023-04-25T06:26:13;24.30;94.20
20158;DHT22;10239;56.820;24.416;2023-04-25T06:28:43;24.30;94.20
20158;DHT22;10239;56.820;24.416;2023-04-25T06:31:10;23.70;92.40
20158;DHT22;10239;56.820;24.416;2023-04-25T06:33:40;23.70;94.10
20158;DHT22;10239;56.820;24.416;2023-04-25T06:36:08;24.80;93.00
20158;DHT22;10239;56.820;24.416;2023-04-25T06:38:37;25.80;92.70
20158;DHT22;10239;56.820;24.416;2023-04-25T06:41:05;26.70;90.50
20158;DHT22;10239;56.820;24.416;2023-04-25T06:43:35;27.00;88.70
20158;DHT22;10239;56.820;24.416;2023-04-25T06:46:03;25.30;88.00
20158;DHT22;10239;56.820;24.416;2023-04-25T06:48:33;26.10;89.70
20158;DHT22;10239;56.820;24.416;2023-04-25T06:51:01;25.80;90.20
20158;DHT22;10239;56.820;24.416;2023-04-25T06:53:28;25.70;88.60
20158;DHT22;10239;56.820;24.416;2023-04-25T06:56:02;25.40;85.70
20158;DHT22;10239;56.820;24.416;2023-04-25T06:58:47;25.00;86.90
20158;DHT22;10239;56.820;24.416;2023-04-25T07:01:23;24.40;86.60
20158;DHT22;10239;56.820;24.416;2023-04-25T07:03:51;25.30;85.70
20158;DHT22;10239;56.820;24.416;2023-04-25T07:06:20;25.90;86.60
20158;DHT22;10239;56.820;24.416;2023-04-25T07:08:47;26.70;82.10
20158;DHT22;10239;56.820;24.416;2023-04-25T07:11:15;27.40;82.80
20158;DHT22;10239;56.820;24.416;2023-04-25T07:13:43;26.60;84.90
20158;DHT22;10239;56.820;24.416;2023-04-25T07:16:11;27.70;79.70
20158;DHT22;10239;56.820;24.416;2023-04-25T07:18:38;26.60;80.20
20158;DHT22;10239;56.820;24.416;2023-04-25T07:21:06;25.80;83.80
20158;DHT22;10239;56.820;24.416;2023-04-25T07:23:35;27.00;82.10
20158;DHT22;10239;56.820;24.416;2023-04-25T07:26:08;26.50;79.80
20158;DHT22;10239;56.820;24.416;2023-04-25T07:28:41;26.20;81.30
20158;DHT22;10239;56.820;24.416;2023-04-25T07:31:09;25.20;83.40
20158;DHT22;10239;56.820;24.416;2023-04-25T07:33:36;25.40;81.60
20158;DHT22;10239;56.820;24.416;2023-04-25T07:36:04;25.00;80.40
20158;DHT22;10239;56.820;24.416;2023-04-25T07:38:32;24.60;83.90
20158;DHT22;10239;56.820;24.416;2023-04-25T07:41:00;25.50;79.80
20158;DHT22;10239;56.820;24.416;2023-04-25T07:43:28;25.10;82.60
20158;DHT22;10239;56.820;24.416;2023-04-25T07:45:58;25.80;80.00
20158;DHT22;10239;56.820;24.416;2023-04-25T07:48:29;25.60;80.30
20158;DHT22;10239;56.820;24.416;2023-04-25T07:50:57;25.80;78.90
20158;DHT22;10239;56.820;24.416;2023-04-25T07:53:24;25.80;82.30
20158;DHT22;10239;56.820;24.416;2023-04-25T07:55:57;25.70;79.20
20158;DHT22;10239;56.820;24.416;2023-04-25T07:58:25;25.80;81.10
20158;DHT22;10239;56.820;24.416;2023-04-25T08:00:57;26.90;79.30
20158;DHT22;10239;56.820;24.416;2023-04-25T08:03:45;26.80;78.10
20158;DHT22;10239;56.820;24.416;2023-04-25T08:06:22;26.50;77.10
20158;DHT22;10239;56.820;24.416;2023-04-25T08:09:03;26.70;83.30
20158;DHT22;10239;56.820;24.416;2023-04-25T08:11:37;25.50;75.10
20158;DHT22;10239;56.820;24.416;2023-04-25T08:14:07;23.80;77.80
20158;DHT22;10239;56.820;24.416;2023-04-25T08:16:35;23.70;77.20
20158;DHT22;10239;56.820;24.416;2023-04-25T08:19:03;24.30;77.70
20158;DHT22;10239;56.820;24.416;2023-04-25T08:21:31;24.00;78.40
20158;DHT22;10239;56.820;24.416;2023-04-25T08:24:02;24.40;78.20
20158;DHT22;10239;56.820;24.416;2023-04-25T08:26:37;24.80;78.60
20158;DHT22;10239;56.820;24.416;2023-04-25T08:29:06;24.70;78.80
20158;DHT22;10239;56.820;24.416;2023-04-25T08:31:38;24.50;78.60
20158;DHT22;10239;56.820;24.416;2023-04-25T08:34:07;25.30;77.40
20158;DHT22;10239;56.820;24.416;2023-04-25T08:36:42;25.40;76.70
20158;DHT22;10239;56.820;24.416;2023-04-25T08:39:28;25.40;75.20
20158;DHT22;10239;56.820;24.416;2023-04-25T08:42:16;24.70;76.80
20158;DHT22;10239;56.820;24.416;2023-04-25T08:44:45;24.60;79.00
20158;DHT22;10239;56.820;24.416;2023-04-25T08:47:15;24.50;78.50
20158;DHT22;10239;56.820;24.416;2023-04-25T08:49:53;25.40;76.10
20158;DHT22;10239;56.820;24.416;2023-04-25T08:52:23;25.70;72.70
20158;DHT22;10239;56.820;24.416;2023-04-25T08:54:53;26.30;73.30
20158;DHT22;10239;56.820;24.416;2023-04-25T08:57:22;25.20;78.10
20158;DHT22;10239;56.820;24.416;2023-04-25T08:59:54;25.80;77.50
20158;DHT22;10239;56.820;24.416;2023-04-25T09:02:24;25.40;75.40
20158;DHT22;10239;56.820;24.416;2023-04-25T09:04:53;23.90;76.20
20158;DHT22;10239;56.820;24.416;2023-04-25T09:07:22;22.60;80.20
20158;DHT22;10239;56.820;24.416;2023-04-25T09:09:50;22.00;80.10
20158;DHT22;10239;56.820;24.416;2023-04-25T09:12:20;22.10;80.60
20158;DHT22;10239;56.820;24.416;2023-04-25T09:15:03;22.10;81.80
20158;DHT22;10239;56.820;24.416;2023-04-25T09:17:47;22.50;80.90
20158;DHT22;10239;56.820;24.416;2023-04-25T09:20:23;22.60;78.90
20158;DHT22;10239;56.820;24.416;2023-04-25T09:23:05;22.50;79.60
20158;DHT22;10239;56.820;24.416;2023-04-25T09:25:37;23.00;80.00
20158;DHT22;10239;56.820;24.416;2023-04-25T09:28:09;23.00;78.70
20158;DHT22;10239;56.820;24.416;2023-04-25T09:30:37;21.90;80.10
20158;DHT22;10239;56.820;24.416;2023-04-25T09:33:29;22.20;81.20
20158;DHT22;10239;56.820;24.416;2023-04-25T09:36:07;21.90;78.50
20158;DHT22;10239;56.820;24.416;2023-04-25T09:38:55;21.50;79.80
20158;DHT22;10239;56.820;24.416;2023-04-25T09:41:27;21.30;81.20
20158;DHT22;10239;56.820;24.416;2023-04-25T09:43:59;20.80;80.30
20158;DHT22;10239;56.820;24.416;2023-04-25T09:46:34;21.40;85.30
20158;DHT22;10239;56.820;24.416;2023-04-25T09:49:20;21.90;78.50
20158;DHT22;10239;56.820;24.416;2023-04-25T09:52:02;21.60;81.80
20158;DHT22;10239;56.820;24.416;2023-04-25T09:54:36;21.40;83.40
20158;DHT22;10239;56.820;24.416;2023-04-25T09:57:14;21.50;81.60
20158;DHT22;10239;56.820;24.416;2023-04-25T09:59:53;21.70;81.60
20158;DHT22;10239;56.820;24.416;2023-04-25T10:02:22;22.80;80.50
20158;DHT22;10239;56.820;24.416;2023-04-25T10:04:55;24.20;78.00
20158;DHT22;10239;56.820;24.416;2023-04-25T10:07:31;24.90;75.40
20158;DHT22;10239;56.820;24.416;2023-04-25T10:10:03;23.60;76.90
20158;DHT22;10239;56.820;24.416;2023-04-25T10:12:33;22.40;78.80
20158;DHT22;10239;56.820;24.416;2023-04-25T10:15:03;22.00;77.40
20158;DHT22;10239;56.820;24.416;2023-04-25T10:17:32;23.50;80.00
20158;DHT22;10239;56.820;24.416;2023-04-25T10:20:02;24.30;75.80
20158;DHT22;10239;56.820;24.416;2023-04-25T10:22:46;24.10;76.30
20158;DHT22;10239;56.820;24.416;2023-04-25T10:25:15;23.50;75.60
20158;DHT22;10239;56.820;24.416;2023-04-25T10:27:44;22.30;79.80
20158;DHT22;10239;56.820;24.416;2023-04-25T10:30:15;22.50;80.10
20158;DHT22;10239;56.820;24.416;2023-04-25T10:32:44;23.70;76.30
20158;DHT22;10239;56.820;24.416;2023-04-25T10:35:24;23.00;75.20
20158;DHT22;10239;56.820;24.416;2023-04-25T10:38:08;22.30;77.70
20158;DHT22;10239;56.820;24.416;2023-04-25T10:40:37;23.00;77.10
20158;DHT22;10239;56.820;24.416;2023-04-25T10:46:01;22.80;78.10
20158;DHT22;10239;56.820;24.416;2023-04-25T10:48:31;23.50;76.90
20158;DHT22;10239;56.820;24.416;2023-04-25T10:53:37;23.90;75.20
20158;DHT22;10239;56.820;24.416;2023-04-25T10:56:31;23.20;74.10
20158;DHT22;10239;56.820;24.416;2023-04-25T10:59:16;23.10;79.80
20158;DHT22;10239;56.820;24.416;2023-04-25T11:01:47;23.50;79.20
20158;DHT22;10239;56.820;24.416;2023-04-25T11:04:33;22.50;79.80
20158;DHT22;10239;56.820;24.416;2023-04-25T11:07:13;23.10;80.10
20158;DHT22;10239;56.820;24.416;2023-04-25T11:09:41;23.50;79.40
20158;DHT22;10239;56.820;24.416;2023-04-25T11:12:09;23.00;82.20
20158;DHT22;10239;56.820;24.416;2023-04-25T11:14:39;22.50;78.90
20158;DHT22;10239;56.820;24.416;2023-04-25T11:17:11;22.70;82.00
20158;DHT22;10239;56.820;24.416;2023-04-25T11:19:39;22.20;81.20
20158;DHT22;10239;56.820;24.416;2023-04-25T11:22:07;22.10;81.20
20158;DHT22;10239;56.820;24.416;2023-04-25T11:24:35;22.20;83.20
20158;DHT22;10239;56.820;24.416;2023-04-25T11:27:06;22.40;81.10
20158;DHT22;10239;56.820;24.416;2023-04-25T11:29:35;22.60;80.60
20158;DHT22;10239;56.820;24.416;2023-04-25T11:32:02;22.40;81.90
20158;DHT22;10239;56.820;24.416;2023-04-25T11:34:31;21.80;80.50
20158;DHT22;10239;56.820;24.416;2023-04-25T11:37:01;21.80;78.70
20158;DHT22;10239;56.820;24.416;2023-04-25T11:39:29;21.40;81.60
20158;DHT22;10239;56.820;24.416;2023-04-25T11:41:57;20.70;81.60
20158;DHT22;10239;56.820;24.416;2023-04-25T11:44:28;20.60;82.30
20158;DHT22;10239;56.820;24.416;2023-04-25T11:46:55;20.30;80.40
20158;DHT22;10239;56.820;24.416;2023-04-25T11:49:23;20.10;81.80
20158;DHT22;10239;56.820;24.416;2023-04-25T11:51:52;19.50;83.80
20158;DHT22;10239;56.820;24.416;2023-04-25T11:54:19;19.20;86.00
20158;DHT22;10239;56.820;24.416;2023-04-25T11:56:47;19.10;88.40
20158;DHT22;10239;56.820;24.416;2023-04-25T11:59:15;19.10;84.10
20158;DHT22;10239;56.820;24.416;2023-04-25T12:01:50;19.50;87.60
20158;DHT22;10239;56.820;24.416;2023-04-25T12:04:21;19.20;86.90
20158;DHT22;10239;56.820;24.416;2023-04-25T12:06:52;19.40;88.90
20158;DHT22;10239;56.820;24.416;2023-04-25T12:09:31;19.60;87.10
20158;DHT22;10239;56.820;24.416;2023-04-25T12:12:00;19.70;89.90
20158;DHT22;10239;56.820;24.416;2023-04-25T12:14:33;19.50;90.20
20158;DHT22;10239;56.820;24.416;2023-04-25T12:17:03;19.30;89.70
20158;DHT22;10239;56.820;24.416;2023-04-25T12:19:34;19.40;90.00
20158;DHT22;10239;56.820;24.416;2023-04-25T12:22:03;19.30;89.10
20158;DHT22;10239;56.820;24.416;2023-04-25T12:24:33;19.80;91.30
20158;DHT22;10239;56.820;24.416;2023-04-25T12:27:06;20.20;94.40
20158;DHT22;10239;56.820;24.416;2023-04-25T12:29:37;20.40;97.00
20158;DHT22;10239;56.820;24.416;2023-04-25T12:32:16;20.40;91.00
20158;DHT22;10239;56.820;24.416;2023-04-25T12:34:44;20.40;91.00
20158;DHT22;10239;56.820;24.416;2023-04-25T12:37:13;20.90;93.10
20158;DHT22;10239;56.820;24.416;2023-04-25T12:39:41;20.80;90.10
20158;DHT22;10239;56.820;24.416;2023-04-25T12:42:09;20.50;91.80
20158;DHT22;10239;56.820;24.416;2023-04-25T12:44:39;20.90;90.40
20158;DHT22;10239;56.820;24.416;2023-04-25T12:47:08;21.00;91.10
20158;DHT22;10239;56.820;24.416;2023-04-25T12:49:36;20.90;90.20
20158;DHT22;10239;56.820;24.416;2023-04-25T12:52:04;20.80;88.10
20158;DHT22;10239;56.820;24.416;2023-04-25T12:54:33;20.60;90.10
20158;DHT22;10239;56.820;24.416;2023-04-25T12:57:00;20.60;90.30
20158;DHT22;10239;56.820;24.416;2023-04-25T12:59:30;20.50;86.90
20158;DHT22;10239;56.820;24.416;2023-04-25T13:01:58;20.30;90.30
20158;DHT22;10239;56.820;24.416;2023-04-25T13:04:25;20.50;90.90
20158;DHT22;10239;56.820;24.416;2023-04-25T13:06:53;20.60;91.40
20158;DHT22;10239;56.820;24.416;2023-04-25T13:09:21;20.80;91.20
20158;DHT22;10239;56.820;24.416;2023-04-25T13:11:48;21.00;93.00
20158;DHT22;10239;56.820;24.416;2023-04-25T13:14:16;21.20;92.80
20158;DHT22;10239;56.820;24.416;2023-04-25T13:16:43;21.40;91.30
20158;DHT22;10239;56.820;24.416;2023-04-25T13:19:11;21.60;90.30
20158;DHT22;10239;56.820;24.416;2023-04-25T13:21:39;21.70;90.00
20158;DHT22;10239;56.820;24.416;2023-04-25T13:24:06;21.90;90.70
20158;DHT22;10239;56.820;24.416;2023-04-25T13:26:35;22.10;90.40
20158;DHT22;10239;56.820;24.416;2023-04-25T13:29:03;22.50;90.10
20158;DHT22;10239;56.820;24.416;2023-04-25T13:31:31;22.90;87.90
20158;DHT22;10239;56.820;24.416;2023-04-25T13:33:59;22.90;87.00
20158;DHT22;10239;56.820;24.416;2023-04-25T13:36:26;23.30;84.10
20158;DHT22;10239;56.820;24.416;2023-04-25T13:38:54;23.20;82.50
20158;DHT22;10239;56.820;24.416;2023-04-25T13:41:22;22.60;82.60
20158;DHT22;10239;56.820;24.416;2023-04-25T13:43:50;22.00;85.20
20158;DHT22;10239;56.820;24.416;2023-04-25T13:46:18;21.20;84.90
20158;DHT22;10239;56.820;24.416;2023-04-25T13:49:05;21.40;85.40
20158;DHT22;10239;56.820;24.416;2023-04-25T13:51:39;21.10;88.00
20158;DHT22;10239;56.820;24.416;2023-04-25T13:54:07;20.70;90.30
20158;DHT22;10239;56.820;24.416;2023-04-25T13:56:35;19.60;90.20
20158;DHT22;10239;56.820;24.416;2023-04-25T13:59:03;19.30;91.30
20158;DHT22;10239;56.820;24.416;2023-04-25T14:01:31;18.50;92.70
20158;DHT22;10239;56.820;24.416;2023-04-25T14:04:02;18.40;93.50
20158;DHT22;10239;56.820;24.416;2023-04-25T14:06:32;17.70;94.40
20158;DHT22;10239;56.820;24.416;2023-04-25T14:09:00;17.40;96.20
20158;DHT22;10239;56.820;24.416;2023-04-25T14:11:28;17.00;97.10
20158;DHT22;10239;56.820;24.416;2023-04-25T14:13:56;16.40;99.90
20158;DHT22;10239;56.820;24.416;2023-04-25T14:16:24;15.50;99.90
20158;DHT22;10239;56.820;24.416;2023-04-25T14:18:51;15.30;99.90
20158;DHT22;10239;56.820;24.416;2023-04-25T14:21:19;15.30;99.90
20158;DHT22;10239;56.820;24.416;2023-04-25T14:23:48;15.30;99.90
20158;DHT22;10239;56.820;24.416;2023-04-25T14:26:16;15.40;99.90
20158;DHT22;10239;56.820;24.416;2023-04-25T14:28:43;15.40;99.90
20158;DHT22;10239;56.820;24.416;2023-04-25T14:31:11;15.50;99.90
20158;DHT22;10239;56.820;24.416;2023-04-25T14:33:48;15.60;99.90
20158;DHT22;10239;56.820;24.416;2023-04-25T14:36:16;15.70;99.90
20158;DHT22;10239;56.820;24.416;2023-04-25T14:38:44;15.30;99.90
20158;DHT22;10239;56.820;24.416;2023-04-25T14:41:12;15.40;99.90
20158;DHT22;10239;56.820;24.416;2023-04-25T14:43:40;15.30;99.90
20158;DHT22;10239;56.820;24.416;2023-04-25T14:46:08;15.20;99.90
20158;DHT22;10239;56.820;24.416;2023-04-25T14:48:36;15.00;99.90
20158;DHT22;10239;56.820;24.416;2023-04-25T14:51:04;14.90;99.90
20158;DHT22;10239;56.820;24.416;2023-04-25T14:53:31;14.80;99.90
20158;DHT22;10239;56.820;24.416;2023-04-25T14:55:59;14.60;99.90
20158;DHT22;10239;56.820;24.416;2023-04-25T14:58:26;14.60;99.90
20158;DHT22;10239;56.820;24.416;2023-04-25T15:00:54;15.00;99.90
20158;DHT22;10239;56.820;24.416;2023-04-25T15:03:21;15.00;99.90
20158;DHT22;10239;56.820;24.416;2023-04-25T15:05:50;15.10;99.90
20158;DHT22;10239;56.820;24.416;2023-04-25T15:08:17;15.40;99.90
20158;DHT22;10239;56.820;24.416;2023-04-25T15:10:46;15.60;99.90
20158;DHT22;10239;56.820;24.416;2023-04-25T15:13:14;15.60;99.90
20158;DHT22;10239;56.820;24.416;2023-04-25T15:15:42;15.60;99.90
20158;DHT22;10239;56.820;24.416;2023-04-25T15:18:09;15.70;99.90
20158;DHT22;10239;56.820;24.416;2023-04-25T15:20:37;15.90;99.90
20158;DHT22;10239;56.820;24.416;2023-04-25T15:23:04;15.90;99.90
20158;DHT22;10239;56.820;24.416;2023-04-25T15:25:32;15.90;99.90
20158;DHT22;10239;56.820;24.416;2023-04-25T15:27:59;16.00;99.90
20158;DHT22;10239;56.820;24.416;2023-04-25T15:30:27;16.30;99.90
20158;DHT22;10239;56.820;24.416;2023-04-25T15:32:54;16.50;99.90
20158;DHT22;10239;56.820;24.416;2023-04-25T15:35:22;16.70;99.90
20158;DHT22;10239;56.820;24.416;2023-04-25T15:37:49;16.80;99.90
20158;DHT22;10239;56.820;24.416;2023-04-25T15:40:17;16.90;99.90
20158;DHT22;10239;56.820;24.416;2023-04-25T15:42:51;17.00;99.90
20158;DHT22;10239;56.820;24.416;2023-04-25T15:45:20;17.10;99.90
20158;DHT22;10239;56.820;24.416;2023-04-25T15:47:49;17.20;99.90